sensor_id;sensor_type;location;lat;lon;timestamp;P1;durP1;ratioP1;P2;durP2;ratioP2
48040;SDS011;33815;48.386;11.738;2024-02-16T00:00:24;16.60;;;9.75;;
48040;SDS011;33815;48.386;11.738;2024-02-16T00:02:50;15.23;;;10.05;;
48040;SDS011;33815;48.386;11.738;2024-02-16T00:05:16;17.13;;;11.43;;
48040;SDS011;33815;48.386;11.738;2024-02-16T00:07:41;15.10;;;11.32;;
48040;SDS011;33815;48.386;11.738;2024-02-16T00:10:07;14.90;;;10.23;;
48040;SDS011;33815;48.386;11.738;2024-02-16T00:12:34;12.90;;;10.57;;
48040;SDS011;33815;48.386;11.738;2024-02-16T00:15:00;15.70;;;10.75;;
48040;SDS011;33815;48.386;11.738;2024-02-16T00:17:26;21.67;;;12.02;;
48040;SDS011;33815;48.386;11.738;2024-02-16T00:19:54;15.20;;;10.55;;
48040;SDS011;33815;48.386;11.738;2024-02-16T00:22:20;15.38;;;11.45;;
48040;SDS011;33815;48.386;11.738;2024-02-16T00:24:46;16.15;;;11.35;;
48040;SDS011;33815;48.386;11.738;2024-02-16T00:27:11;15.23;;;10.48;;
48040;SDS011;33815;48.386;11.738;2024-02-16T00:29:36;17.05;;;11.50;;
48040;SDS011;33815;48.386;11.738;2024-02-16T00:32:03;16.27;;;11.48;;
48040;SDS011;33815;48.386;11.738;2024-02-16T00:34:31;16.02;;;10.68;;
48040;SDS011;33815;48.386;11.738;2024-02-16T00:36:56;14.43;;;11.98;;
48040;SDS011;33815;48.386;11.738;2024-02-16T00:39:21;14.18;;;10.60;;
48040;SDS011;33815;48.386;11.738;2024-02-16T00:41:47;14.50;;;10.85;;
48040;SDS011;33815;48.386;11.738;2024-02-16T00:44:12;14.10;;;10.18;;
48040;SDS011;33815;48.386;11.738;2024-02-16T00:46:37;15.23;;;10.70;;
48040;SDS011;33815;48.386;11.738;2024-02-16T00:49:03;13.43;;;10.48;;
48040;SDS011;33815;48.386;11.738;2024-02-16T00:51:28;14.70;;;11.25;;
48040;SDS011;33815;48.386;11.738;2024-02-16T00:53:54;16.33;;;11.68;;
48040;SDS011;33815;48.386;11.738;2024-02-16T00:56:19;12.70;;;9.82;;
48040;SDS011;33815;48.386;11.738;2024-02-16T00:58:45;19.65;;;11.77;;
48040;SDS011;33815;48.386;11.738;2024-02-16T01:01:10;15.82;;;11.18;;
48040;SDS011;33815;48.386;11.738;2024-02-16T01:03:37;14.50;;;10.95;;
48040;SDS011;33815;48.386;11.738;2024-02-16T01:06:03;14.27;;;10.30;;
48040;SDS011;33815;48.386;11.738;2024-02-16T01:08:30;13.48;;;9.93;;
48040;SDS011;33815;48.386;11.738;2024-02-16T01:10:55;15.38;;;10.93;;
48040;SDS011;33815;48.386;11.738;2024-02-16T01:13:21;16.13;;;11.00;;
48040;SDS011;33815;48.386;11.738;2024-02-16T01:15:46;20.15;;;13.40;;
48040;SDS011;33815;48.386;11.738;2024-02-16T01:18:11;16.80;;;12.45;;
48040;SDS011;33815;48.386;11.738;2024-02-16T01:20:37;19.38;;;12.05;;
48040;SDS011;33815;48.386;11.738;2024-02-16T01:23:02;16.33;;;11.60;;
48040;SDS011;33815;48.386;11.738;2024-02-16T01:25:29;21.10;;;13.32;;
48040;SDS011;33815;48.386;11.738;2024-02-16T01:27:55;19.17;;;13.38;;
48040;SDS011;33815;48.386;11.738;2024-02-16T01:30:20;20.27;;;13.00;;
48040;SDS011;33815;48.386;11.738;2024-02-16T01:32:46;17.33;;;12.48;;
48040;SDS011;33815;48.386;11.738;2024-02-16T01:35:12;21.13;;;13.15;;
48040;SDS011;33815;48.386;11.738;2024-02-16T01:37:39;16.90;;;12.13;;
48040;SDS011;33815;48.386;11.738;2024-02-16T01:40:05;17.30;;;12.45;;
48040;SDS011;33815;48.386;11.738;2024-02-16T01:42:32;17.98;;;12.52;;
48040;SDS011;33815;48.386;11.738;2024-02-16T01:44:57;16.13;;;12.32;;
48040;SDS011;33815;48.386;11.738;2024-02-16T01:47:23;15.63;;;11.98;;
48040;SDS011;33815;48.386;11.738;2024-02-16T01:49:48;18.00;;;12.65;;
48040;SDS011;33815;48.386;11.738;2024-02-16T01:52:14;20.38;;;14.15;;
48040;SDS011;33815;48.386;11.738;2024-02-16T01:54:39;18.67;;;13.63;;
48040;SDS011;33815;48.386;11.738;2024-02-16T01:57:05;18.73;;;13.27;;
48040;SDS011;33815;48.386;11.738;2024-02-16T01:59:30;19.05;;;13.68;;
48040;SDS011;33815;48.386;11.738;2024-02-16T02:01:58;24.70;;;14.73;;
48040;SDS011;33815;48.386;11.738;2024-02-16T02:04:23;21.75;;;14.80;;
48040;SDS011;33815;48.386;11.738;2024-02-16T02:06:49;21.45;;;15.02;;
48040;SDS011;33815;48.386;11.738;2024-02-16T02:09:14;19.65;;;12.98;;
48040;SDS011;33815;48.386;11.738;2024-02-16T02:11:39;22.75;;;14.35;;
48040;SDS011;33815;48.386;11.738;2024-02-16T02:14:05;19.55;;;14.35;;
48040;SDS011;33815;48.386;11.738;2024-02-16T02:16:30;23.60;;;14.13;;
48040;SDS011;33815;48.386;11.738;2024-02-16T02:18:55;21.98;;;13.48;;
48040;SDS011;33815;48.386;11.738;2024-02-16T02:21:20;18.17;;;13.95;;
48040;SDS011;33815;48.386;11.738;2024-02-16T02:23:46;17.73;;;12.97;;
48040;SDS011;33815;48.386;11.738;2024-02-16T02:26:13;18.25;;;12.60;;
48040;SDS011;33815;48.386;11.738;2024-02-16T02:28:39;17.20;;;14.02;;
48040;SDS011;33815;48.386;11.738;2024-02-16T02:31:05;15.70;;;12.55;;
48040;SDS011;33815;48.386;11.738;2024-02-16T02:33:30;16.58;;;13.25;;
48040;SDS011;33815;48.386;11.738;2024-02-16T02:35:55;19.63;;;12.20;;
48040;SDS011;33815;48.386;11.738;2024-02-16T02:38:20;19.98;;;13.73;;
48040;SDS011;33815;48.386;11.738;2024-02-16T02:40:46;20.98;;;14.88;;
48040;SDS011;33815;48.386;11.738;2024-02-16T02:43:11;18.58;;;14.15;;
48040;SDS011;33815;48.386;11.738;2024-02-16T02:45:37;22.48;;;13.43;;
48040;SDS011;33815;48.386;11.738;2024-02-16T02:48:02;14.57;;;11.57;;
48040;SDS011;33815;48.386;11.738;2024-02-16T02:50:27;19.52;;;14.38;;
48040;SDS011;33815;48.386;11.738;2024-02-16T02:52:53;20.33;;;13.82;;
48040;SDS011;33815;48.386;11.738;2024-02-16T02:55:18;19.23;;;14.18;;
48040;SDS011;33815;48.386;11.738;2024-02-16T02:57:44;19.42;;;14.77;;
48040;SDS011;33815;48.386;11.738;2024-02-16T03:00:09;21.30;;;14.50;;
48040;SDS011;33815;48.386;11.738;2024-02-16T03:02:37;21.33;;;14.68;;
48040;SDS011;33815;48.386;11.738;2024-02-16T03:05:06;18.60;;;13.60;;
48040;SDS011;33815;48.386;11.738;2024-02-16T03:07:32;22.75;;;15.15;;
48040;SDS011;33815;48.386;11.738;2024-02-16T03:09:58;24.15;;;16.77;;
48040;SDS011;33815;48.386;11.738;2024-02-16T03:12:23;18.90;;;14.52;;
48040;SDS011;33815;48.386;11.738;2024-02-16T03:14:49;24.38;;;15.43;;
48040;SDS011;33815;48.386;11.738;2024-02-16T03:17:14;20.10;;;13.77;;
48040;SDS011;33815;48.386;11.738;2024-02-16T03:19:40;21.50;;;15.48;;
48040;SDS011;33815;48.386;11.738;2024-02-16T03:22:05;23.02;;;15.05;;
48040;SDS011;33815;48.386;11.738;2024-02-16T03:24:30;22.45;;;15.25;;
48040;SDS011;33815;48.386;11.738;2024-02-16T03:26:56;22.65;;;15.65;;
48040;SDS011;33815;48.386;11.738;2024-02-16T03:29:21;24.90;;;17.02;;
48040;SDS011;33815;48.386;11.738;2024-02-16T03:31:46;23.30;;;16.35;;
48040;SDS011;33815;48.386;11.738;2024-02-16T03:34:11;21.97;;;15.67;;
48040;SDS011;33815;48.386;11.738;2024-02-16T03:36:37;21.30;;;15.18;;
48040;SDS011;33815;48.386;11.738;2024-02-16T03:39:02;22.50;;;14.90;;
48040;SDS011;33815;48.386;11.738;2024-02-16T03:41:27;21.55;;;14.43;;
48040;SDS011;33815;48.386;11.738;2024-02-16T03:43:53;22.75;;;16.23;;
48040;SDS011;33815;48.386;11.738;2024-02-16T03:46:19;27.88;;;17.08;;
48040;SDS011;33815;48.386;11.738;2024-02-16T03:48:44;20.60;;;14.40;;
48040;SDS011;33815;48.386;11.738;2024-02-16T03:51:10;23.30;;;16.95;;
48040;SDS011;33815;48.386;11.738;2024-02-16T03:53:35;23.92;;;15.70;;
48040;SDS011;33815;48.386;11.738;2024-02-16T03:56:00;21.80;;;15.73;;
48040;SDS011;33815;48.386;11.738;2024-02-16T03:58:25;23.70;;;15.80;;
48040;SDS011;33815;48.386;11.738;2024-02-16T04:00:51;20.80;;;15.95;;
48040;SDS011;33815;48.386;11.738;2024-02-16T04:03:19;22.55;;;14.32;;
48040;SDS011;33815;48.386;11.738;2024-02-16T04:05:45;21.40;;;15.73;;
48040;SDS011;33815;48.386;11.738;2024-02-16T04:08:10;19.10;;;14.23;;
48040;SDS011;33815;48.386;11.738;2024-02-16T04:10:36;21.45;;;14.95;;
48040;SDS011;33815;48.386;11.738;2024-02-16T04:13:01;19.27;;;13.68;;
48040;SDS011;33815;48.386;11.738;2024-02-16T04:15:27;22.63;;;14.95;;
48040;SDS011;33815;48.386;11.738;2024-02-16T04:17:53;25.02;;;15.30;;
48040;SDS011;33815;48.386;11.738;2024-02-16T04:20:18;22.25;;;15.95;;
48040;SDS011;33815;48.386;11.738;2024-02-16T04:22:44;19.25;;;14.88;;
48040;SDS011;33815;48.386;11.738;2024-02-16T04:25:10;23.40;;;16.38;;
48040;SDS011;33815;48.386;11.738;2024-02-16T04:27:35;22.33;;;16.35;;
48040;SDS011;33815;48.386;11.738;2024-02-16T04:30:01;21.95;;;15.23;;
48040;SDS011;33815;48.386;11.738;2024-02-16T04:32:30;24.25;;;15.68;;
48040;SDS011;33815;48.386;11.738;2024-02-16T04:34:56;21.08;;;14.90;;
48040;SDS011;33815;48.386;11.738;2024-02-16T04:37:22;22.63;;;15.75;;
48040;SDS011;33815;48.386;11.738;2024-02-16T04:39:48;23.70;;;16.98;;
48040;SDS011;33815;48.386;11.738;2024-02-16T04:42:13;23.05;;;16.33;;
48040;SDS011;33815;48.386;11.738;2024-02-16T04:44:38;20.83;;;15.10;;
48040;SDS011;33815;48.386;11.738;2024-02-16T04:47:04;22.98;;;15.32;;
48040;SDS011;33815;48.386;11.738;2024-02-16T04:49:30;25.48;;;16.92;;
48040;SDS011;33815;48.386;11.738;2024-02-16T04:51:55;23.90;;;16.52;;
48040;SDS011;33815;48.386;11.738;2024-02-16T04:54:20;24.35;;;17.52;;
48040;SDS011;33815;48.386;11.738;2024-02-16T04:56:46;24.58;;;17.80;;
48040;SDS011;33815;48.386;11.738;2024-02-16T04:59:11;27.52;;;18.05;;
48040;SDS011;33815;48.386;11.738;2024-02-16T05:01:36;24.95;;;18.00;;
48040;SDS011;33815;48.386;11.738;2024-02-16T05:04:02;26.25;;;17.38;;
48040;SDS011;33815;48.386;11.738;2024-02-16T05:06:27;27.90;;;17.95;;
48040;SDS011;33815;48.386;11.738;2024-02-16T05:08:53;25.80;;;16.88;;
48040;SDS011;33815;48.386;11.738;2024-02-16T05:11:18;25.55;;;17.95;;
48040;SDS011;33815;48.386;11.738;2024-02-16T05:13:44;27.00;;;18.05;;
48040;SDS011;33815;48.386;11.738;2024-02-16T05:16:10;23.55;;;17.38;;
48040;SDS011;33815;48.386;11.738;2024-02-16T05:18:36;24.27;;;17.17;;
48040;SDS011;33815;48.386;11.738;2024-02-16T05:21:01;24.38;;;18.13;;
48040;SDS011;33815;48.386;11.738;2024-02-16T05:23:27;21.05;;;16.00;;
48040;SDS011;33815;48.386;11.738;2024-02-16T05:25:52;24.55;;;17.40;;
48040;SDS011;33815;48.386;11.738;2024-02-16T05:28:19;23.90;;;16.70;;
48040;SDS011;33815;48.386;11.738;2024-02-16T05:30:44;29.38;;;17.67;;
48040;SDS011;33815;48.386;11.738;2024-02-16T05:33:10;22.13;;;16.13;;
48040;SDS011;33815;48.386;11.738;2024-02-16T05:35:35;23.23;;;16.65;;
48040;SDS011;33815;48.386;11.738;2024-02-16T05:38:04;24.08;;;16.88;;
48040;SDS011;33815;48.386;11.738;2024-02-16T05:40:32;25.52;;;17.30;;
48040;SDS011;33815;48.386;11.738;2024-02-16T05:43:09;24.10;;;16.83;;
48040;SDS011;33815;48.386;11.738;2024-02-16T05:45:34;22.33;;;16.38;;
48040;SDS011;33815;48.386;11.738;2024-02-16T05:48:00;25.60;;;17.33;;
48040;SDS011;33815;48.386;11.738;2024-02-16T05:50:25;23.15;;;16.63;;
48040;SDS011;33815;48.386;11.738;2024-02-16T05:52:51;26.35;;;18.52;;
48040;SDS011;33815;48.386;11.738;2024-02-16T05:55:17;28.58;;;18.70;;
48040;SDS011;33815;48.386;11.738;2024-02-16T05:57:45;29.45;;;19.10;;
48040;SDS011;33815;48.386;11.738;2024-02-16T06:00:11;26.52;;;17.42;;
48040;SDS011;33815;48.386;11.738;2024-02-16T06:02:38;24.30;;;17.55;;
48040;SDS011;33815;48.386;11.738;2024-02-16T06:05:03;25.35;;;16.70;;
48040;SDS011;33815;48.386;11.738;2024-02-16T06:07:30;21.83;;;17.35;;
48040;SDS011;33815;48.386;11.738;2024-02-16T06:09:55;25.05;;;17.05;;
48040;SDS011;33815;48.386;11.738;2024-02-16T06:12:22;23.40;;;16.48;;
48040;SDS011;33815;48.386;11.738;2024-02-16T06:14:47;23.42;;;16.90;;
48040;SDS011;33815;48.386;11.738;2024-02-16T06:17:17;24.10;;;16.80;;
48040;SDS011;33815;48.386;11.738;2024-02-16T06:19:43;24.15;;;17.10;;
48040;SDS011;33815;48.386;11.738;2024-02-16T06:22:09;25.90;;;16.05;;
48040;SDS011;33815;48.386;11.738;2024-02-16T06:24:34;27.05;;;17.08;;
48040;SDS011;33815;48.386;11.738;2024-02-16T06:27:00;26.50;;;18.23;;
48040;SDS011;33815;48.386;11.738;2024-02-16T06:29:26;28.55;;;17.17;;
48040;SDS011;33815;48.386;11.738;2024-02-16T06:31:51;26.27;;;16.75;;
48040;SDS011;33815;48.386;11.738;2024-02-16T06:34:17;23.67;;;15.40;;
48040;SDS011;33815;48.386;11.738;2024-02-16T06:36:43;26.13;;;17.48;;
48040;SDS011;33815;48.386;11.738;2024-02-16T06:39:08;24.52;;;17.50;;
48040;SDS011;33815;48.386;11.738;2024-02-16T06:41:36;24.00;;;17.52;;
48040;SDS011;33815;48.386;11.738;2024-02-16T06:44:02;26.90;;;17.50;;
48040;SDS011;33815;48.386;11.738;2024-02-16T06:46:28;25.00;;;18.02;;
48040;SDS011;33815;48.386;11.738;2024-02-16T06:48:54;26.00;;;17.63;;
48040;SDS011;33815;48.386;11.738;2024-02-16T06:51:21;27.15;;;17.65;;
48040;SDS011;33815;48.386;11.738;2024-02-16T06:53:48;27.60;;;17.98;;
48040;SDS011;33815;48.386;11.738;2024-02-16T06:56:13;23.63;;;17.53;;
48040;SDS011;33815;48.386;11.738;2024-02-16T06:58:38;25.60;;;17.65;;
48040;SDS011;33815;48.386;11.738;2024-02-16T07:01:04;26.95;;;17.63;;
48040;SDS011;33815;48.386;11.738;2024-02-16T07:03:29;25.63;;;17.83;;
48040;SDS011;33815;48.386;11.738;2024-02-16T07:05:54;25.47;;;18.07;;
48040;SDS011;33815;48.386;11.738;2024-02-16T07:08:20;29.17;;;19.35;;
48040;SDS011;33815;48.386;11.738;2024-02-16T07:10:46;26.17;;;19.13;;
48040;SDS011;33815;48.386;11.738;2024-02-16T07:13:12;30.65;;;19.25;;
48040;SDS011;33815;48.386;11.738;2024-02-16T07:15:38;30.75;;;19.65;;
48040;SDS011;33815;48.386;11.738;2024-02-16T07:18:04;27.35;;;19.50;;
48040;SDS011;33815;48.386;11.738;2024-02-16T07:20:29;28.23;;;18.33;;
48040;SDS011;33815;48.386;11.738;2024-02-16T07:22:55;28.50;;;17.48;;
48040;SDS011;33815;48.386;11.738;2024-02-16T07:25:20;26.70;;;17.83;;
48040;SDS011;33815;48.386;11.738;2024-02-16T07:27:45;28.33;;;17.30;;
48040;SDS011;33815;48.386;11.738;2024-02-16T07:30:11;25.17;;;18.08;;
48040;SDS011;33815;48.386;11.738;2024-02-16T07:32:38;29.10;;;17.20;;
48040;SDS011;33815;48.386;11.738;2024-02-16T07:35:03;23.05;;;16.23;;
48040;SDS011;33815;48.386;11.738;2024-02-16T07:37:29;22.38;;;16.48;;
48040;SDS011;33815;48.386;11.738;2024-02-16T07:39:55;27.67;;;18.02;;
48040;SDS011;33815;48.386;11.738;2024-02-16T07:42:20;27.80;;;17.00;;
48040;SDS011;33815;48.386;11.738;2024-02-16T07:44:45;24.05;;;17.83;;
48040;SDS011;33815;48.386;11.738;2024-02-16T07:47:11;22.38;;;16.20;;
48040;SDS011;33815;48.386;11.738;2024-02-16T07:49:37;21.90;;;17.63;;
48040;SDS011;33815;48.386;11.738;2024-02-16T07:52:04;24.15;;;17.52;;
48040;SDS011;33815;48.386;11.738;2024-02-16T07:54:30;22.30;;;17.10;;
48040;SDS011;33815;48.386;11.738;2024-02-16T07:56:55;20.33;;;13.98;;
48040;SDS011;33815;48.386;11.738;2024-02-16T07:59:20;19.35;;;13.00;;
48040;SDS011;33815;48.386;11.738;2024-02-16T08:01:47;16.05;;;13.15;;
48040;SDS011;33815;48.386;11.738;2024-02-16T08:04:12;15.05;;;12.40;;
48040;SDS011;33815;48.386;11.738;2024-02-16T08:06:37;16.50;;;11.50;;
48040;SDS011;33815;48.386;11.738;2024-02-16T08:09:03;14.85;;;10.40;;
48040;SDS011;33815;48.386;11.738;2024-02-16T08:11:29;14.15;;;11.02;;
48040;SDS011;33815;48.386;11.738;2024-02-16T08:13:54;11.75;;;9.52;;
48040;SDS011;33815;48.386;11.738;2024-02-16T08:16:20;11.57;;;9.32;;
48040;SDS011;33815;48.386;11.738;2024-02-16T08:18:46;13.88;;;10.63;;
48040;SDS011;33815;48.386;11.738;2024-02-16T08:21:11;13.45;;;8.77;;
48040;SDS011;33815;48.386;11.738;2024-02-16T08:23:37;13.80;;;8.93;;
48040;SDS011;33815;48.386;11.738;2024-02-16T08:26:03;12.10;;;8.88;;
48040;SDS011;33815;48.386;11.738;2024-02-16T08:28:28;13.48;;;10.57;;
48040;SDS011;33815;48.386;11.738;2024-02-16T08:30:54;9.40;;;8.18;;
48040;SDS011;33815;48.386;11.738;2024-02-16T08:33:19;9.68;;;7.93;;
48040;SDS011;33815;48.386;11.738;2024-02-16T08:35:44;10.90;;;7.97;;
48040;SDS011;33815;48.386;11.738;2024-02-16T08:38:10;9.65;;;7.53;;
48040;SDS011;33815;48.386;11.738;2024-02-16T08:40:39;10.20;;;7.45;;
48040;SDS011;33815;48.386;11.738;2024-02-16T08:43:05;11.43;;;8.52;;
48040;SDS011;33815;48.386;11.738;2024-02-16T08:45:32;10.57;;;7.63;;
48040;SDS011;33815;48.386;11.738;2024-02-16T08:47:57;12.38;;;8.18;;
48040;SDS011;33815;48.386;11.738;2024-02-16T08:50:22;11.00;;;7.60;;
48040;SDS011;33815;48.386;11.738;2024-02-16T08:52:49;10.18;;;6.72;;
48040;SDS011;33815;48.386;11.738;2024-02-16T08:55:15;9.15;;;7.13;;
48040;SDS011;33815;48.386;11.738;2024-02-16T08:57:41;7.80;;;6.95;;
48040;SDS011;33815;48.386;11.738;2024-02-16T09:00:06;9.50;;;6.30;;
48040;SDS011;33815;48.386;11.738;2024-02-16T09:02:32;11.88;;;6.80;;
48040;SDS011;33815;48.386;11.738;2024-02-16T09:04:57;8.02;;;6.72;;
48040;SDS011;33815;48.386;11.738;2024-02-16T09:07:22;8.18;;;6.10;;
48040;SDS011;33815;48.386;11.738;2024-02-16T09:09:49;12.27;;;7.20;;
48040;SDS011;33815;48.386;11.738;2024-02-16T09:12:14;8.48;;;6.72;;
48040;SDS011;33815;48.386;11.738;2024-02-16T09:14:39;9.30;;;5.83;;
48040;SDS011;33815;48.386;11.738;2024-02-16T09:17:05;8.18;;;5.72;;
48040;SDS011;33815;48.386;11.738;2024-02-16T09:19:31;9.52;;;6.47;;
48040;SDS011;33815;48.386;11.738;2024-02-16T09:21:56;7.55;;;6.18;;
48040;SDS011;33815;48.386;11.738;2024-02-16T09:24:23;9.40;;;5.90;;
48040;SDS011;33815;48.386;11.738;2024-02-16T09:26:53;7.07;;;5.25;;
48040;SDS011;33815;48.386;11.738;2024-02-16T09:29:19;9.90;;;6.15;;
48040;SDS011;33815;48.386;11.738;2024-02-16T09:31:44;10.27;;;6.40;;
48040;SDS011;33815;48.386;11.738;2024-02-16T09:34:09;7.50;;;6.05;;
48040;SDS011;33815;48.386;11.738;2024-02-16T09:36:35;9.23;;;5.97;;
48040;SDS011;33815;48.386;11.738;2024-02-16T09:39:02;8.30;;;6.28;;
48040;SDS011;33815;48.386;11.738;2024-02-16T09:41:28;9.32;;;5.63;;
48040;SDS011;33815;48.386;11.738;2024-02-16T09:43:53;6.35;;;5.55;;
48040;SDS011;33815;48.386;11.738;2024-02-16T09:46:19;10.00;;;5.72;;
48040;SDS011;33815;48.386;11.738;2024-02-16T09:48:46;7.50;;;5.75;;
48040;SDS011;33815;48.386;11.738;2024-02-16T09:51:17;6.22;;;5.63;;
48040;SDS011;33815;48.386;11.738;2024-02-16T09:53:43;8.02;;;6.40;;
48040;SDS011;33815;48.386;11.738;2024-02-16T09:56:08;9.02;;;5.72;;
48040;SDS011;33815;48.386;11.738;2024-02-16T09:58:34;7.18;;;5.88;;
48040;SDS011;33815;48.386;11.738;2024-02-16T10:01:00;10.55;;;5.70;;
48040;SDS011;33815;48.386;11.738;2024-02-16T10:03:29;8.15;;;5.97;;
48040;SDS011;33815;48.386;11.738;2024-02-16T10:06:07;9.82;;;5.47;;
48040;SDS011;33815;48.386;11.738;2024-02-16T10:08:34;6.22;;;5.03;;
48040;SDS011;33815;48.386;11.738;2024-02-16T10:11:11;7.22;;;5.63;;
48040;SDS011;33815;48.386;11.738;2024-02-16T10:13:36;6.97;;;5.05;;
48040;SDS011;33815;48.386;11.738;2024-02-16T10:16:08;5.00;;;4.50;;
48040;SDS011;33815;48.386;11.738;2024-02-16T10:18:36;8.30;;;4.70;;
48040;SDS011;33815;48.386;11.738;2024-02-16T10:21:02;9.63;;;5.20;;
48040;SDS011;33815;48.386;11.738;2024-02-16T10:23:28;5.90;;;4.43;;
48040;SDS011;33815;48.386;11.738;2024-02-16T10:25:54;6.55;;;5.32;;
48040;SDS011;33815;48.386;11.738;2024-02-16T10:28:19;6.47;;;4.80;;
48040;SDS011;33815;48.386;11.738;2024-02-16T10:30:46;6.68;;;4.70;;
48040;SDS011;33815;48.386;11.738;2024-02-16T10:33:13;5.57;;;4.80;;
48040;SDS011;33815;48.386;11.738;2024-02-16T10:35:38;6.32;;;4.20;;
48040;SDS011;33815;48.386;11.738;2024-02-16T10:38:05;5.00;;;4.22;;
48040;SDS011;33815;48.386;11.738;2024-02-16T10:40:38;6.07;;;4.13;;
48040;SDS011;33815;48.386;11.738;2024-02-16T10:43:04;8.90;;;4.80;;
48040;SDS011;33815;48.386;11.738;2024-02-16T10:45:35;5.32;;;4.43;;
48040;SDS011;33815;48.386;11.738;2024-02-16T10:48:04;5.43;;;4.00;;
48040;SDS011;33815;48.386;11.738;2024-02-16T10:50:31;6.03;;;4.32;;
48040;SDS011;33815;48.386;11.738;2024-02-16T10:52:58;6.10;;;4.32;;
48040;SDS011;33815;48.386;11.738;2024-02-16T10:55:29;5.20;;;3.92;;
48040;SDS011;33815;48.386;11.738;2024-02-16T10:57:56;7.88;;;4.25;;
48040;SDS011;33815;48.386;11.738;2024-02-16T11:00:22;5.90;;;4.22;;
48040;SDS011;33815;48.386;11.738;2024-02-16T11:02:51;7.45;;;4.85;;
48040;SDS011;33815;48.386;11.738;2024-02-16T11:05:18;6.45;;;3.72;;
48040;SDS011;33815;48.386;11.738;2024-02-16T11:07:44;5.20;;;3.67;;
48040;SDS011;33815;48.386;11.738;2024-02-16T11:10:11;6.15;;;4.32;;
48040;SDS011;33815;48.386;11.738;2024-02-16T11:12:37;5.20;;;3.90;;
48040;SDS011;33815;48.386;11.738;2024-02-16T11:15:04;6.15;;;3.90;;
48040;SDS011;33815;48.386;11.738;2024-02-16T11:17:33;8.75;;;5.03;;
48040;SDS011;33815;48.386;11.738;2024-02-16T11:20:00;7.00;;;4.38;;
48040;SDS011;33815;48.386;11.738;2024-02-16T11:22:26;6.03;;;4.20;;
48040;SDS011;33815;48.386;11.738;2024-02-16T11:24:53;4.88;;;3.58;;
48040;SDS011;33815;48.386;11.738;2024-02-16T11:27:19;4.13;;;3.58;;
48040;SDS011;33815;48.386;11.738;2024-02-16T11:29:45;6.72;;;3.92;;
48040;SDS011;33815;48.386;11.738;2024-02-16T11:32:11;5.55;;;3.70;;
48040;SDS011;33815;48.386;11.738;2024-02-16T11:34:36;10.93;;;2.50;;
48040;SDS011;33815;48.386;11.738;2024-02-16T11:37:05;4.85;;;3.28;;
48040;SDS011;33815;48.386;11.738;2024-02-16T11:39:31;7.63;;;2.80;;
48040;SDS011;33815;48.386;11.738;2024-02-16T11:42:03;4.43;;;2.92;;
48040;SDS011;33815;48.386;11.738;2024-02-16T11:44:35;5.15;;;2.65;;
48040;SDS011;33815;48.386;11.738;2024-02-16T11:47:01;4.47;;;3.45;;
48040;SDS011;33815;48.386;11.738;2024-02-16T11:49:28;5.18;;;3.47;;
48040;SDS011;33815;48.386;11.738;2024-02-16T11:51:54;5.85;;;3.47;;
48040;SDS011;33815;48.386;11.738;2024-02-16T11:54:20;6.53;;;2.60;;
48040;SDS011;33815;48.386;11.738;2024-02-16T11:56:46;4.70;;;3.55;;
48040;SDS011;33815;48.386;11.738;2024-02-16T11:59:16;5.32;;;2.70;;
48040;SDS011;33815;48.386;11.738;2024-02-16T12:01:52;4.68;;;2.70;;
48040;SDS011;33815;48.386;11.738;2024-02-16T12:04:22;5.20;;;2.33;;
48040;SDS011;33815;48.386;11.738;2024-02-16T12:06:50;3.90;;;3.00;;
48040;SDS011;33815;48.386;11.738;2024-02-16T12:09:16;8.57;;;5.60;;
48040;SDS011;33815;48.386;11.738;2024-02-16T12:11:41;3.88;;;2.95;;
48040;SDS011;33815;48.386;11.738;2024-02-16T12:14:07;4.25;;;3.00;;
48040;SDS011;33815;48.386;11.738;2024-02-16T12:16:32;3.95;;;3.05;;
48040;SDS011;33815;48.386;11.738;2024-02-16T12:19:06;4.07;;;3.22;;
48040;SDS011;33815;48.386;11.738;2024-02-16T12:21:33;4.57;;;3.35;;
48040;SDS011;33815;48.386;11.738;2024-02-16T12:23:58;3.83;;;2.65;;
48040;SDS011;33815;48.386;11.738;2024-02-16T12:26:24;3.83;;;2.67;;
48040;SDS011;33815;48.386;11.738;2024-02-16T12:28:49;3.78;;;2.28;;
48040;SDS011;33815;48.386;11.738;2024-02-16T12:31:19;3.67;;;2.97;;
48040;SDS011;33815;48.386;11.738;2024-02-16T12:33:45;3.97;;;2.60;;
48040;SDS011;33815;48.386;11.738;2024-02-16T12:36:10;4.80;;;2.80;;
48040;SDS011;33815;48.386;11.738;2024-02-16T12:38:35;5.83;;;3.57;;
48040;SDS011;33815;48.386;11.738;2024-02-16T12:41:00;5.37;;;2.80;;
48040;SDS011;33815;48.386;11.738;2024-02-16T12:43:26;3.70;;;2.55;;
48040;SDS011;33815;48.386;11.738;2024-02-16T12:45:51;3.03;;;2.60;;
48040;SDS011;33815;48.386;11.738;2024-02-16T12:48:16;4.00;;;3.33;;
48040;SDS011;33815;48.386;11.738;2024-02-16T12:50:42;8.52;;;3.58;;
48040;SDS011;33815;48.386;11.738;2024-02-16T12:53:08;7.65;;;4.38;;
48040;SDS011;33815;48.386;11.738;2024-02-16T12:55:33;4.57;;;3.42;;
48040;SDS011;33815;48.386;11.738;2024-02-16T12:57:58;5.43;;;3.10;;
48040;SDS011;33815;48.386;11.738;2024-02-16T13:00:24;5.63;;;3.92;;
48040;SDS011;33815;48.386;11.738;2024-02-16T13:02:50;6.10;;;3.70;;
48040;SDS011;33815;48.386;11.738;2024-02-16T13:05:15;7.22;;;2.85;;
48040;SDS011;33815;48.386;11.738;2024-02-16T13:07:40;3.25;;;2.95;;
48040;SDS011;33815;48.386;11.738;2024-02-16T13:10:07;4.68;;;3.88;;
48040;SDS011;33815;48.386;11.738;2024-02-16T13:12:35;3.88;;;2.65;;
48040;SDS011;33815;48.386;11.738;2024-02-16T13:15:02;6.20;;;2.85;;
48040;SDS011;33815;48.386;11.738;2024-02-16T13:17:28;7.78;;;2.83;;
48040;SDS011;33815;48.386;11.738;2024-02-16T13:19:54;8.30;;;3.10;;
48040;SDS011;33815;48.386;11.738;2024-02-16T13:22:20;5.43;;;3.10;;
48040;SDS011;33815;48.386;11.738;2024-02-16T13:24:45;4.90;;;3.53;;
48040;SDS011;33815;48.386;11.738;2024-02-16T13:27:10;3.88;;;3.20;;
48040;SDS011;33815;48.386;11.738;2024-02-16T13:29:36;5.20;;;2.72;;
48040;SDS011;33815;48.386;11.738;2024-02-16T13:32:01;6.37;;;3.50;;
48040;SDS011;33815;48.386;11.738;2024-02-16T13:34:28;6.65;;;3.00;;
48040;SDS011;33815;48.386;11.738;2024-02-16T13:36:54;2.85;;;2.40;;
48040;SDS011;33815;48.386;11.738;2024-02-16T13:39:19;4.00;;;3.17;;
48040;SDS011;33815;48.386;11.738;2024-02-16T13:41:47;5.15;;;2.67;;
48040;SDS011;33815;48.386;11.738;2024-02-16T13:44:15;4.15;;;3.13;;
48040;SDS011;33815;48.386;11.738;2024-02-16T13:46:41;7.07;;;3.15;;
48040;SDS011;33815;48.386;11.738;2024-02-16T13:49:06;9.75;;;3.20;;
48040;SDS011;33815;48.386;11.738;2024-02-16T13:51:32;4.15;;;2.70;;
48040;SDS011;33815;48.386;11.738;2024-02-16T13:53:58;3.67;;;2.53;;
48040;SDS011;33815;48.386;11.738;2024-02-16T13:56:23;7.67;;;3.17;;
48040;SDS011;33815;48.386;11.738;2024-02-16T13:58:48;7.78;;;3.72;;
48040;SDS011;33815;48.386;11.738;2024-02-16T14:01:13;4.33;;;2.73;;
48040;SDS011;33815;48.386;11.738;2024-02-16T14:03:39;4.95;;;3.38;;
48040;SDS011;33815;48.386;11.738;2024-02-16T14:06:05;4.47;;;3.22;;
48040;SDS011;33815;48.386;11.738;2024-02-16T14:08:32;3.83;;;3.10;;
48040;SDS011;33815;48.386;11.738;2024-02-16T14:10:58;6.53;;;3.10;;